aviador You're here:

KCOE Decoded Metar

COEUR D'ALENE in ID, USA
Report Time2018-01-16 20:56:00
UTC Time2018-01-16 21:19:37
Flight Rules mvfr MVFR
Wind170° at 04 kt
W.Decomp.*RWY 20: 2.6 kt HW 3 kt LCW
RWY 24: 0.1 kt HW 4 kt LCW
W.Rank170° ranks 2
Current wind is below 170° avg. (7.3)
Visibility9999 m
Phenomena:N/A
Clouds:Overcast 015 Hf
Expected CloudBase > 800 ft AGL from Temp-Dew spread
Ceiling1,500 ft
Temp04°C (ISA -6)
Dew Point02°C (87% RH)
AAT0.9°C
QNH1025 hPa
Density Alt1,250 ft
Elevation2,320 ft
Report Wrong Elevation
Raw Report
KCOE 162056Z AUTO 17004KT 10SM OVC015 04/02 A3026 RMK AO2 SLP280
60001 T00390022 53001=

Extra information for KCOE:More info

Metar Taf Metar & Taf Last 4 Metars F.Rules Stats Wind Profile Meteogram Temp Stats Airport Information Weather charts Add Link Nearby VenuesMetar ALERT Operation Metar Decoded Social comments

AIRNAV info for KCOE